Aberdeen, Pennsylvania
Current Conditions -  °F | °C
As of 12:56 AM on Saturday 29 Nov 2014 (Local Time) from KMDT Reporting Station
Overcast Overcast  
Wind Chill: 27°   Ceiling: 9000
Heat Index: 27°   Visibility: 10mi
Dew Point: 18°   Wind: 0mph
Humidity: 69%   Direction: NA
Pressure: 30.28"   Gusts: NA
Location:  40.1674°N, 76.6045°W
Report Text: KMDT 290556Z 00000KT 10SM OVC090 M03/M08 A3028 RMK AO2 SLP258 VIRGA OHD-ALQDS T10281078 11006 21039 53005
Loading
Personal Weather Stations






























Interactive Weather Map New forecast layout! Learn more

10-Day Weather Forecast

Advertisements
Track Severe Weather on mobile